This is the latest recevied weather packets stored in our database for station/object HB9KBJ-8. If no packets are shown the sender has not sent any weather packets the latest 1 day(s).
| Time | Temp. | Humidity | Pressure | Rain* | Wind** | Luminosity | Snow |
|---|---|---|---|---|---|---|---|
| 1836274812 | 13.33° C | 86% | 1023.9 hPa | 0 mm | 0 m/s | 0 W/m² | - |
| 1836274506 | 13.33° C | 86% | 1024 hPa | 0 mm | 0 m/s | 0 W/m² | - |
| 1836274363 | 12.78° C | 86% | 1023.9 hPa | 0 mm | 0 m/s | 0 W/m² | - |
| 1836274203 | 13.33° C | 86% | 1024 hPa | 0 mm | 0 m/s | 0 W/m² | - |
| 1836273901 | 13.33° C | 86% | 1023.9 hPa | 0 mm | 0 m/s | 0 W/m² | - |
| 1778067133 | 11.11° C | 87% | 1008.1 hPa | 0.25 mm | 0.89 m/s, 151° | 58 W/m² | - |
| 1778066850 | 11.11° C | 87% | 1008.1 hPa | 0 mm | 2.24 m/s, 139° | 69 W/m² | - |
| 1778066545 | 11.67° C | 86% | 1007.9 hPa | 0 mm | 0.45 m/s, 157° | 62 W/m² | - |
| 1778066245 | 11.67° C | 86% | 1007.7 hPa | 0 mm | 1.79 m/s, 157° | 54 W/m² | - |
| 1778065946 | 12.22° C | 86% | 1007.6 hPa | 0 mm | 0 m/s | 60 W/m² | - |
| 1778065640 | 12.22° C | 85% | 1007.5 hPa | 0 mm | 0.45 m/s, 99° | 84 W/m² | - |
| 1778065335 | 12.22° C | 85% | 1007.5 hPa | 0 mm | 0 m/s | 44 W/m² | - |
| 1778065051 | 12.78° C | 85% | 1007.4 hPa | 0 mm | 0.89 m/s, 153° | 88 W/m² | - |
| 1778064743 | 12.78° C | 85% | 1007.4 hPa | 0.25 mm | 0 m/s | 142 W/m² | - |
| 1778064439 | 12.78° C | 85% | 1007.4 hPa | 0.25 mm | 0 m/s | 146 W/m² | - |
| 1778064152 | 12.78° C | 84% | 1007.4 hPa | 0.25 mm | 0 m/s | 125 W/m² | - |
| 1778063848 | 12.78° C | 84% | 1007.4 hPa | 0.25 mm | 0 m/s | 155 W/m² | - |
| 1778063540 | 12.78° C | 85% | 1007.3 hPa | 0.25 mm | 0 m/s | 185 W/m² | - |
| 1778063238 | 12.78° C | 85% | 1007.3 hPa | 0.25 mm | 0 m/s | 206 W/m² | - |
| 1778062939 | 12.78° C | 85% | 1007.3 hPa | 0.25 mm | 0.45 m/s, 153° | 234 W/m² | - |
| 1778062643 | 12.78° C | 85% | 1007.3 hPa | 0.25 mm | 0 m/s | 227 W/m² | - |
| 1778062340 | 12.78° C | 85% | 1007.2 hPa | 0.51 mm | 0 m/s | 341 W/m² | - |
| 1778062052 | 12.78° C | 86% | 1007.3 hPa | 0.51 mm | 0 m/s | 346 W/m² | - |
| 1778061743 | 12.78° C | 86% | 1007.2 hPa | 0.51 mm | 0 m/s | 336 W/m² | - |
| 1778061438 | 12.22° C | 86% | 1007.1 hPa | 0.51 mm | 0 m/s | 274 W/m² | - |
* Rain latest hour (hover to see other rain measurements)
** Current wind speed in m/s (hover to see current wind gust speed)